Time;durP1;ratioP1;P1;durP2;ratioP2;P2;SDS_P1;SDS_P2;PMS_P1;PMS_P2;Temp;Humidity;BMP_temperature;BMP_pressure;BME280_temperature;BME280_humidity;BME280_pressure;Samples;Min_cycle;Max_cycle;Signal;HPM_P1;HPM_P2
2022/09/09 04:31:23;;;;;;;;;1.33;1.33;;;;;;;;5544364;22;46396;-62
2022/09/09 04:33:49;;;;;;;;;4.00;2.00;;;;;;;;4989439;28;45293;-61
2022/09/09 04:36:14;;;;;;;;;2.00;1.00;;;;;;;;4998583;28;45435;-62
2022/09/09 04:38:39;;;;;;;;;2.33;1.00;;;;;;;;4999071;28;45254;-61
2022/09/09 04:41:05;;;;;;;;;3.67;3.00;;;;;;;;4998968;28;45306;-61
2022/09/09 04:43:30;;;;;;;;;2.33;2.33;;;;;;;;4998497;28;45376;-61
2022/09/09 04:45:56;;;;;;;;;3.33;1.33;;;;;;;;4997060;28;45578;-61
2022/09/09 04:48:21;;;;;;;;;3.00;1.00;;;;;;;;4997935;28;47074;-62
2022/09/09 04:50:53;;;;;;;;;3.00;1.33;;;;;;;;4996438;28;45461;-62
2022/09/09 04:53:18;;;;;;;;;3.00;3.00;;;;;;;;4997176;28;45695;-62
2022/09/09 04:55:44;;;;;;;;;2.67;1.67;;;;;;;;4996185;28;47093;-61
2022/09/09 04:58:09;;;;;;;;;4.00;3.00;;;;;;;;4994718;28;47591;-62
2022/09/09 05:00:35;;;;;;;;;1.67;1.67;;;;;;;;4995598;28;45227;-62
2022/09/09 05:03:08;;;;;;;;;3.33;1.33;;;;;;;;5000011;28;45446;-62
2022/09/09 05:05:34;;;;;;;;;2.33;2.00;;;;;;;;4997700;28;45335;-62
2022/09/09 05:08:06;;;;;;;;;1.67;1.33;;;;;;;;4997595;28;46245;-61
2022/09/09 05:10:32;;;;;;;;;1.00;0.00;;;;;;;;4996460;28;45308;-61
2022/09/09 05:12:57;;;;;;;;;1.33;1.33;;;;;;;;4998457;28;45330;-61
2022/09/09 05:15:22;;;;;;;;;3.33;3.33;;;;;;;;4995450;28;45563;-61
2022/09/09 05:17:47;;;;;;;;;4.00;3.00;;;;;;;;4998154;28;45549;-62
2022/09/09 05:20:13;;;;;;;;;2.33;1.00;;;;;;;;4989114;28;45438;-61
2022/09/09 05:22:38;;;;;;;;;5.00;4.00;;;;;;;;5000282;28;45374;-61
2022/09/09 05:25:03;;;;;;;;;3.00;2.00;;;;;;;;5001504;28;45589;-61
2022/09/09 05:27:31;;;;;;;;;4.00;2.00;;;;;;;;5001291;28;45403;-61
2022/09/09 05:29:57;;;;;;;;;3.67;3.33;;;;;;;;4999305;28;45424;-61
2022/09/09 05:32:22;;;;;;;;;4.00;4.00;;;;;;;;5000224;28;45594;-61
2022/09/09 05:34:47;;;;;;;;;3.33;2.00;;;;;;;;5009322;28;45467;-61
2022/09/09 05:37:13;;;;;;;;;3.00;1.33;;;;;;;;4998877;28;46459;-61
2022/09/09 05:39:38;;;;;;;;;6.33;3.33;;;;;;;;4999357;28;45604;-61
2022/09/09 05:42:04;;;;;;;;;3.33;1.00;;;;;;;;4997371;28;45479;-61
2022/09/09 05:44:29;;;;;;;;;2.00;2.00;;;;;;;;4996436;28;45719;-61
2022/09/09 05:46:54;;;;;;;;;3.67;2.67;;;;;;;;4999394;28;45549;-61
2022/09/09 05:49:20;;;;;;;;;5.00;2.00;;;;;;;;5000681;28;45426;-61
2022/09/09 05:51:45;;;;;;;;;1.67;1.67;;;;;;;;5001302;28;45462;-61
2022/09/09 05:54:11;;;;;;;;;3.33;3.00;;;;;;;;4998737;28;45597;-61
2022/09/09 05:56:36;;;;;;;;;4.67;2.00;;;;;;;;5000492;28;46178;-61
2022/09/09 05:59:02;;;;;;;;;5.00;2.00;;;;;;;;5001406;28;45260;-61
2022/09/09 06:01:29;;;;;;;;;3.33;1.67;;;;;;;;5001014;28;45234;-61
2022/09/09 06:03:54;;;;;;;;;2.00;2.00;;;;;;;;5001182;28;45283;-61
2022/09/09 06:06:21;;;;;;;;;2.67;2.67;;;;;;;;4999567;28;46159;-61
2022/09/09 06:08:47;;;;;;;;;3.33;3.33;;;;;;;;5000816;28;45519;-61
2022/09/09 06:11:14;;;;;;;;;2.67;2.00;;;;;;;;4995206;28;45325;-61
2022/09/09 06:13:39;;;;;;;;;4.00;3.00;;;;;;;;5000450;28;45313;-61
2022/09/09 06:16:08;;;;;;;;;2.00;2.00;;;;;;;;5000131;28;46305;-62
2022/09/09 06:18:34;;;;;;;;;3.67;3.00;;;;;;;;4999089;28;45214;-61
2022/09/09 06:21:00;;;;;;;;;1.33;1.33;;;;;;;;4997286;28;45518;-60
2022/09/09 06:23:26;;;;;;;;;4.00;1.33;;;;;;;;4999048;28;45455;-61
2022/09/09 06:25:51;;;;;;;;;2.00;1.67;;;;;;;;4999523;28;46261;-61
2022/09/09 06:28:17;;;;;;;;;2.00;2.00;;;;;;;;5000119;28;45597;-62
2022/09/09 06:30:42;;;;;;;;;5.00;2.00;;;;;;;;4999447;28;45293;-60
2022/09/09 06:33:09;;;;;;;;;4.67;2.67;;;;;;;;4999058;28;45327;-60
2022/09/09 06:35:34;;;;;;;;;2.33;2.33;;;;;;;;5000309;28;45474;-60
2022/09/09 06:37:59;;;;;;;;;4.33;2.00;;;;;;;;4998236;28;45510;-60
2022/09/09 06:40:24;;;;;;;;;3.00;2.00;;;;;;;;4999808;28;45378;-60
2022/09/09 06:42:50;;;;;;;;;4.67;3.00;;;;;;;;5000510;28;45453;-61
2022/09/09 06:45:15;;;;;;;;;2.00;2.00;;;;;;;;4999967;28;45551;-60
2022/09/09 06:47:40;;;;;;;;;4.67;2.00;;;;;;;;5000468;28;45316;-60
2022/09/09 06:50:07;;;;;;;;;1.00;1.00;;;;;;;;5000897;28;45336;-60
2022/09/09 06:52:32;;;;;;;;;7.00;2.00;;;;;;;;5000340;28;45447;-60
2022/09/09 06:54:58;;;;;;;;;2.00;2.00;;;;;;;;4999492;28;46119;-60
2022/09/09 06:57:23;;;;;;;;;3.00;2.00;;;;;;;;4999511;28;45253;-60
2022/09/09 06:59:49;;;;;;;;;1.67;1.67;;;;;;;;5000271;28;45437;-60
2022/09/09 07:02:14;;;;;;;;;1.00;1.00;;;;;;;;4999871;28;45349;-60
2022/09/09 07:04:39;;;;;;;;;5.00;3.67;;;;;;;;4999923;28;46884;-60
2022/09/09 07:07:05;;;;;;;;;3.33;2.33;;;;;;;;5000358;28;45333;-60
2022/09/09 07:09:31;;;;;;;;;3.00;2.00;;;;;;;;4988911;28;45202;-61
2022/09/09 07:11:59;;;;;;;;;4.00;3.00;;;;;;;;4998689;28;45428;-60
2022/09/09 07:14:24;;;;;;;;;7.00;1.67;;;;;;;;4999140;28;45417;-60
2022/09/09 07:16:49;;;;;;;;;4.00;2.67;;;;;;;;4999739;28;45319;-60
2022/09/09 07:19:15;;;;;;;;;2.00;2.00;;;;;;;;4997808;28;45511;-60
2022/09/09 07:21:40;;;;;;;;;1.67;1.67;;;;;;;;4998870;28;45522;-60
2022/09/09 07:24:07;;;;;;;;;1.33;1.00;;;;;;;;4999772;28;45408;-61
2022/09/09 07:26:32;;;;;;;;;2.00;2.00;;;;;;;;4997130;28;45317;-59
2022/09/09 07:28:58;;;;;;;;;4.00;2.00;;;;;;;;4998266;28;45313;-60
2022/09/09 07:31:27;;;;;;;;;5.33;2.00;;;;;;;;4999055;28;45616;-59
2022/09/09 07:33:53;;;;;;;;;2.00;1.67;;;;;;;;4999594;28;46988;-59
2022/09/09 07:36:23;;;;;;;;;5.00;2.00;;;;;;;;4997942;28;45399;-59
2022/09/09 07:38:56;;;;;;;;;7.00;3.00;;;;;;;;4999070;28;45290;-60
2022/09/09 07:41:22;;;;;;;;;3.00;1.00;;;;;;;;4998543;28;45364;-60
2022/09/09 07:43:48;;;;;;;;;2.00;2.00;;;;;;;;4999635;28;45295;-60
2022/09/09 07:46:14;;;;;;;;;2.67;1.67;;;;;;;;4996319;28;45556;-59
2022/09/09 07:48:50;;;;;;;;;2.00;1.33;;;;;;;;4999553;28;45429;-59
2022/09/09 07:51:19;;;;;;;;;2.00;2.00;;;;;;;;4994877;28;45560;-60
2022/09/09 07:53:45;;;;;;;;;2.00;2.00;;;;;;;;4998659;28;46223;-60
2022/09/09 07:56:12;;;;;;;;;2.67;2.67;;;;;;;;4994584;28;45452;-60
2022/09/09 07:58:38;;;;;;;;;3.00;2.00;;;;;;;;4997800;28;45324;-61
2022/09/09 08:01:11;;;;;;;;;5.00;1.33;;;;;;;;4999009;28;45464;-60
2022/09/09 08:03:36;;;;;;;;;2.00;1.33;;;;;;;;4999440;28;46296;-60
2022/09/09 08:06:06;;;;;;;;;3.00;2.00;;;;;;;;4994622;28;45324;-60
2022/09/09 08:08:31;;;;;;;;;1.67;1.00;;;;;;;;4995069;28;45795;-60
2022/09/09 08:11:03;;;;;;;;;2.33;2.33;;;;;;;;4997153;28;45861;-60
2022/09/09 08:13:30;;;;;;;;;2.00;2.00;;;;;;;;4998503;28;47022;-60
2022/09/09 08:16:02;;;;;;;;;2.33;2.33;;;;;;;;4996819;28;45300;-60
2022/09/09 08:18:28;;;;;;;;;2.00;2.00;;;;;;;;4998026;28;45458;-60
2022/09/09 08:20:53;;;;;;;;;2.00;2.00;;;;;;;;4998766;28;45636;-60
2022/09/09 08:23:18;;;;;;;;;3.00;2.00;;;;;;;;4998471;28;46257;-60
2022/09/09 08:25:45;;;;;;;;;3.00;2.00;;;;;;;;4999092;28;45425;-59
2022/09/09 08:28:10;;;;;;;;;1.00;1.00;;;;;;;;4996993;28;45523;-60
2022/09/09 08:30:35;;;;;;;;;1.25;1.25;;;;;;;;4998666;28;45292;-60
2022/09/09 08:33:01;;;;;;;;;1.00;1.00;;;;;;;;4998784;28;45360;-60
2022/09/09 08:35:26;;;;;;;;;3.33;1.33;;;;;;;;4998670;28;45423;-60
2022/09/09 08:37:53;;;;;;;;;3.33;1.67;;;;;;;;4997417;28;45193;-61
2022/09/09 08:40:21;;;;;;;;;1.00;1.00;;;;;;;;4998342;28;45561;-60
2022/09/09 08:42:50;;;;;;;;;3.00;1.33;;;;;;;;4998093;28;46293;-61
2022/09/09 08:45:22;;;;;;;;;3.67;2.00;;;;;;;;4998161;28;45373;-60
2022/09/09 08:48:06;;;;;;;;;1.50;1.50;;;;;;;;4997404;28;45454;-60
2022/09/09 08:50:35;;;;;;;;;2.67;2.00;;;;;;;;4998876;28;45288;-60
2022/09/09 08:53:10;;;;;;;;;0.00;0.00;;;;;;;;4998804;28;45470;-60
2022/09/09 08:55:52;;;;;;;;;2.50;1.00;;;;;;;;4998388;28;45568;-60
2022/09/09 08:58:22;;;;;;;;;1.00;1.00;;;;;;;;5000154;28;45275;-60
2022/09/09 09:01:00;;;;;;;;;2.00;0.50;;;;;;;;4998355;28;45370;-60
2022/09/09 09:03:42;;;;;;;;;2.75;2.00;;;;;;;;5001660;28;46997;-60
2022/09/09 09:06:22;;;;;;;;;5.00;2.00;;;;;;;;5001606;28;45787;-61
2022/09/09 09:08:51;;;;;;;;;1.50;1.00;;;;;;;;4999530;28;46183;-61
2022/09/09 09:11:16;;;;;;;;;3.25;1.00;;;;;;;;5000394;28;45766;-59
2022/09/09 09:13:45;;;;;;;;;1.50;1.00;;;;;;;;5001653;28;46695;-60
2022/09/09 09:16:19;;;;;;;;;4.25;1.25;;;;;;;;5000648;28;45352;-60
2022/09/09 09:18:44;;;;;;;;;1.25;1.25;;;;;;;;5001862;28;45665;-59
2022/09/09 09:21:14;;;;;;;;;2.00;2.00;;;;;;;;5000415;28;45361;-59
2022/09/09 09:23:48;;;;;;;;;1.00;1.00;;;;;;;;5000023;28;47178;-60
2022/09/09 09:26:13;;;;;;;;;2.25;0.25;;;;;;;;5000969;28;45335;-60
2022/09/09 09:28:39;;;;;;;;;3.50;1.50;;;;;;;;5001865;28;45253;-60
2022/09/09 09:31:04;;;;;;;;;1.50;1.50;;;;;;;;5000242;28;45272;-60
2022/09/09 09:33:37;;;;;;;;;1.50;0.75;;;;;;;;5000954;28;45265;-60
2022/09/09 09:36:03;;;;;;;;;1.50;1.50;;;;;;;;4999270;28;45487;-60
2022/09/09 09:38:28;;;;;;;;;0.25;0.00;;;;;;;;5001210;28;45439;-60
2022/09/09 09:40:57;;;;;;;;;3.00;1.75;;;;;;;;4999999;28;45379;-60
2022/09/09 09:43:36;;;;;;;;;0.00;0.00;;;;;;;;4999544;28;46095;-60
2022/09/09 09:46:03;;;;;;;;;2.00;1.00;;;;;;;;5000929;28;45318;-60
2022/09/09 09:48:28;;;;;;;;;1.00;1.00;;;;;;;;5001029;28;45307;-60
2022/09/09 09:51:10;;;;;;;;;1.00;1.00;;;;;;;;5000234;28;45529;-60
2022/09/09 09:53:36;;;;;;;;;3.25;2.00;;;;;;;;5001263;28;45417;-59
2022/09/09 09:56:03;;;;;;;;;4.25;1.75;;;;;;;;5000216;28;45313;-61
2022/09/09 09:58:33;;;;;;;;;3.00;3.00;;;;;;;;5000913;28;45325;-61
2022/09/09 10:00:59;;;;;;;;;1.00;1.00;;;;;;;;5000016;28;45365;-59
2022/09/09 10:03:29;;;;;;;;;1.00;1.00;;;;;;;;5000507;28;46080;-60
2022/09/09 10:05:56;;;;;;;;;2.00;0.50;;;;;;;;4999908;28;45592;-60
2022/09/09 10:08:21;;;;;;;;;1.00;1.00;;;;;;;;5007780;28;45431;-61
2022/09/09 10:11:01;;;;;;;;;3.25;1.00;;;;;;;;4996001;28;45426;-61
2022/09/09 10:13:45;;;;;;;;;1.00;1.00;;;;;;;;4996292;28;46312;-61
2022/09/09 10:16:10;;;;;;;;;5.75;1.00;;;;;;;;4999853;28;45323;-61
2022/09/09 10:18:38;;;;;;;;;1.00;1.00;;;;;;;;4999941;28;45578;-60
2022/09/09 10:21:22;;;;;;;;;1.00;1.00;;;;;;;;4998835;28;45398;-61
2022/09/09 10:23:57;;;;;;;;;3.00;2.00;;;;;;;;4997789;28;45273;-60
2022/09/09 10:26:25;;;;;;;;;3.00;2.00;;;;;;;;4999012;28;45489;-60
2022/09/09 10:28:54;;;;;;;;;1.50;1.50;;;;;;;;4998819;28;45455;-60
2022/09/09 10:31:23;;;;;;;;;6.00;3.00;;;;;;;;4999098;28;45609;-60
2022/09/09 10:34:00;;;;;;;;;1.25;1.25;;;;;;;;5000523;28;45351;-60
2022/09/09 10:36:26;;;;;;;;;3.75;2.25;;;;;;;;5000146;28;45339;-60
2022/09/09 10:39:00;;;;;;;;;1.00;1.00;;;;;;;;4999094;28;45457;-60
2022/09/09 10:41:33;;;;;;;;;3.00;1.00;;;;;;;;4999818;28;45494;-61
2022/09/09 10:43:58;;;;;;;;;1.00;1.00;;;;;;;;5000323;28;46144;-61
2022/09/09 10:46:35;;;;;;;;;1.00;1.00;;;;;;;;5000152;28;45613;-60
2022/09/09 10:49:00;;;;;;;;;2.00;2.00;;;;;;;;4998504;28;45460;-61
2022/09/09 10:51:36;;;;;;;;;0.25;0.25;;;;;;;;5000125;28;45229;-60
2022/09/09 10:54:07;;;;;;;;;1.00;1.00;;;;;;;;5000344;28;45878;-60
2022/09/09 10:56:34;;;;;;;;;3.50;1.75;;;;;;;;5000331;28;45360;-60
2022/09/09 10:59:17;;;;;;;;;1.75;1.75;;;;;;;;4998660;28;45309;-61
2022/09/09 11:01:45;;;;;;;;;4.50;2.75;;;;;;;;5000371;28;45468;-60
2022/09/09 11:04:19;;;;;;;;;4.25;2.25;;;;;;;;4999616;28;46195;-61
2022/09/09 11:06:47;;;;;;;;;6.25;2.50;;;;;;;;5000332;28;45174;-60
2022/09/09 11:09:18;;;;;;;;;2.50;1.50;;;;;;;;4995625;28;45708;-60
2022/09/09 11:11:50;;;;;;;;;1.75;1.75;;;;;;;;4999949;28;45518;-60
2022/09/09 11:14:20;;;;;;;;;2.75;2.25;;;;;;;;4994952;28;45519;-60
2022/09/09 11:17:03;;;;;;;;;3.25;1.75;;;;;;;;4992615;28;46049;-61
2022/09/09 11:19:28;;;;;;;;;2.50;1.00;;;;;;;;4997836;28;45470;-61
2022/09/09 11:21:55;;;;;;;;;1.00;1.00;;;;;;;;4999211;28;45340;-60
2022/09/09 11:24:21;;;;;;;;;1.25;1.25;;;;;;;;4999505;28;46367;-60
2022/09/09 11:26:49;;;;;;;;;3.25;1.00;;;;;;;;4998013;28;45429;-60
2022/09/09 11:29:34;;;;;;;;;3.75;2.00;;;;;;;;4997119;28;46724;-60
2022/09/09 11:32:16;;;;;;;;;2.75;2.00;;;;;;;;4997983;28;45444;-61
2022/09/09 11:34:53;;;;;;;;;3.25;1.50;;;;;;;;4996643;28;46471;-59
2022/09/09 11:37:37;;;;;;;;;1.25;1.00;;;;;;;;4997430;28;45403;-59
2022/09/09 11:40:19;;;;;;;;;4.25;2.50;;;;;;;;4997067;28;45943;-59
2022/09/09 11:42:44;;;;;;;;;1.00;1.00;;;;;;;;4994308;28;45424;-59
2022/09/09 11:45:16;;;;;;;;;2.00;2.00;;;;;;;;4993777;28;46140;-59
2022/09/09 11:47:51;;;;;;;;;0.00;0.00;;;;;;;;4989742;28;45292;-59
2022/09/09 11:50:16;;;;;;;;;3.00;3.00;;;;;;;;4998817;28;45379;-59
2022/09/09 11:52:45;;;;;;;;;2.00;0.25;;;;;;;;4997625;28;45459;-60
2022/09/09 11:55:32;;;;;;;;;1.00;1.00;;;;;;;;4991591;28;46235;-60
2022/09/09 11:58:01;;;;;;;;;2.00;1.00;;;;;;;;4998287;28;45347;-60
2022/09/09 12:00:44;;;;;;;;;2.75;1.00;;;;;;;;4999212;28;45450;-60
2022/09/09 12:03:29;;;;;;;;;1.00;1.00;;;;;;;;4996541;28;45807;-60
2022/09/09 12:05:55;;;;;;;;;1.00;1.00;;;;;;;;4986067;28;45759;-59
2022/09/09 12:08:26;;;;;;;;;2.00;2.00;;;;;;;;4990343;28;45763;-59
2022/09/09 12:10:55;;;;;;;;;2.00;2.00;;;;;;;;4999972;28;45429;-59
2022/09/09 12:13:23;;;;;;;;;2.50;1.00;;;;;;;;4995252;28;45580;-59
2022/09/09 12:15:49;;;;;;;;;2.00;2.00;;;;;;;;4996667;28;47002;-59
2022/09/09 12:18:22;;;;;;;;;1.25;1.25;;;;;;;;4995742;28;45391;-59
2022/09/09 12:21:10;;;;;;;;;3.00;3.00;;;;;;;;4996577;28;45569;-59
2022/09/09 12:23:52;;;;;;;;;2.00;1.50;;;;;;;;4954677;28;46119;-59
2022/09/09 12:26:23;;;;;;;;;0.75;0.75;;;;;;;;4991101;28;45467;-60
2022/09/09 12:29:13;;;;;;;;;1.75;1.75;;;;;;;;4996827;28;45292;-59
2022/09/09 12:31:38;;;;;;;;;2.50;2.50;;;;;;;;5003353;28;45554;-60
2022/09/09 12:34:24;;;;;;;;;2.50;1.75;;;;;;;;5000297;28;45369;-60
2022/09/09 12:36:54;;;;;;;;;4.00;2.00;;;;;;;;4997283;28;46022;-59
2022/09/09 12:39:22;;;;;;;;;3.00;2.00;;;;;;;;4995826;28;45517;-60
2022/09/09 12:41:57;;;;;;;;;5.25;3.00;;;;;;;;4992775;28;45636;-59
2022/09/09 12:44:23;;;;;;;;;3.00;3.00;;;;;;;;4992135;28;45752;-59
2022/09/09 12:46:48;;;;;;;;;5.00;3.67;;;;;;;;4997361;28;45603;-60
2022/09/09 12:49:34;;;;;;;;;2.75;2.75;;;;;;;;4997377;28;45606;-59
2022/09/09 12:52:01;;;;;;;;;5.00;3.00;;;;;;;;4996208;28;45390;-60
2022/09/09 12:54:27;;;;;;;;;7.00;4.00;;;;;;;;4988812;28;45459;-60
2022/09/09 12:56:53;;;;;;;;;6.50;5.25;;;;;;;;5012350;28;45701;-58
2022/09/09 12:59:23;;;;;;;;;4.50;4.00;;;;;;;;5002004;28;45412;-58
2022/09/09 13:01:55;;;;;;;;;5.00;3.67;;;;;;;;4991099;28;45628;-59
2022/09/09 13:04:22;;;;;;;;;2.00;2.00;;;;;;;;4993835;28;45372;-59
2022/09/09 13:06:47;;;;;;;;;5.33;4.67;;;;;;;;4997647;28;46295;-60
2022/09/09 13:09:12;;;;;;;;;6.75;3.50;;;;;;;;4997607;28;45479;-59
2022/09/09 13:11:38;;;;;;;;;4.00;3.00;;;;;;;;4997092;28;45393;-60
2022/09/09 13:14:03;;;;;;;;;6.00;4.00;;;;;;;;4991134;28;46729;-59
2022/09/09 13:16:32;;;;;;;;;3.00;3.00;;;;;;;;4990535;28;46068;-59
2022/09/09 13:19:08;;;;;;;;;3.75;2.00;;;;;;;;4998648;28;45530;-61
2022/09/09 13:21:39;;;;;;;;;4.00;2.50;;;;;;;;4991585;28;45641;-60
2022/09/09 13:24:26;;;;;;;;;5.25;2.75;;;;;;;;4994620;28;45519;-60
2022/09/09 13:26:56;;;;;;;;;2.75;2.00;;;;;;;;4992026;28;46969;-60
2022/09/09 13:29:21;;;;;;;;;3.25;1.75;;;;;;;;4989261;28;45700;-60
2022/09/09 13:31:47;;;;;;;;;1.00;1.00;;;;;;;;4988251;28;45814;-60
2022/09/09 13:34:29;;;;;;;;;4.25;2.00;;;;;;;;4987584;28;45722;-60
2022/09/09 13:37:02;;;;;;;;;3.25;2.00;;;;;;;;4988092;28;45622;-60
2022/09/09 13:39:27;;;;;;;;;3.00;3.00;;;;;;;;4999500;28;45466;-60
2022/09/09 13:41:53;;;;;;;;;5.75;1.75;;;;;;;;4996307;28;45333;-59
2022/09/09 13:44:26;;;;;;;;;2.00;2.00;;;;;;;;4996307;28;46139;-60
2022/09/09 13:47:02;;;;;;;;;1.50;1.50;;;;;;;;4996283;28;46838;-60
2022/09/09 13:49:29;;;;;;;;;3.00;1.50;;;;;;;;4994258;28;45467;-60
2022/09/09 13:52:03;;;;;;;;;4.25;2.75;;;;;;;;4997765;28;45598;-60
2022/09/09 13:54:30;;;;;;;;;2.00;2.00;;;;;;;;4994996;28;46720;-60
2022/09/09 13:56:55;;;;;;;;;2.00;2.00;;;;;;;;4993689;28;45484;-58
2022/09/09 13:59:21;;;;;;;;;3.00;2.25;;;;;;;;4997337;28;45620;-59
2022/09/09 14:01:46;;;;;;;;;1.00;1.00;;;;;;;;5000136;28;45345;-59
2022/09/09 14:04:12;;;;;;;;;2.00;1.50;;;;;;;;4995802;28;45446;-59
2022/09/09 14:06:39;;;;;;;;;1.75;1.75;;;;;;;;4997632;28;45530;-59
2022/09/09 14:09:09;;;;;;;;;3.00;1.00;;;;;;;;4996513;28;45431;-59
2022/09/09 14:11:35;;;;;;;;;3.67;2.00;;;;;;;;4999788;28;45681;-59
2022/09/09 14:14:00;;;;;;;;;1.00;1.00;;;;;;;;4994748;28;45974;-59
2022/09/09 14:16:27;;;;;;;;;3.50;2.00;;;;;;;;4998087;28;46098;-60
2022/09/09 14:18:52;;;;;;;;;1.25;1.25;;;;;;;;4998040;28;45496;-60
2022/09/09 14:21:18;;;;;;;;;2.00;2.00;;;;;;;;4998619;28;45369;-60
2022/09/09 14:23:43;;;;;;;;;2.00;1.00;;;;;;;;4996866;28;45373;-60
2022/09/09 14:26:08;;;;;;;;;2.25;2.25;;;;;;;;4999520;28;46136;-60
2022/09/09 14:28:34;;;;;;;;;4.00;1.00;;;;;;;;4996057;28;46617;-60
2022/09/09 14:31:00;;;;;;;;;1.00;1.00;;;;;;;;4996237;28;45537;-60
2022/09/09 14:33:26;;;;;;;;;4.00;2.50;;;;;;;;4995951;28;45419;-60
2022/09/09 14:35:58;;;;;;;;;1.25;1.25;;;;;;;;4997957;28;45414;-60
2022/09/09 14:38:24;;;;;;;;;5.75;1.75;;;;;;;;4997295;28;45516;-60
2022/09/09 14:40:49;;;;;;;;;4.00;2.25;;;;;;;;4995267;28;45499;-60
2022/09/09 14:43:14;;;;;;;;;5.00;1.00;;;;;;;;4999079;28;45633;-60
2022/09/09 14:45:40;;;;;;;;;2.75;1.00;;;;;;;;4995737;28;48252;-60
2022/09/09 14:48:05;;;;;;;;;2.00;2.00;;;;;;;;4998577;28;45528;-59
2022/09/09 14:50:30;;;;;;;;;2.00;2.00;;;;;;;;5000873;28;45446;-59
2022/09/09 14:52:55;;;;;;;;;1.00;1.00;;;;;;;;4998682;28;45452;-59
2022/09/09 14:55:21;;;;;;;;;2.00;1.25;;;;;;;;4996129;28;46758;-60
2022/09/09 14:57:46;;;;;;;;;4.50;2.00;;;;;;;;5002190;28;45444;-59
2022/09/09 15:00:13;;;;;;;;;3.00;2.00;;;;;;;;4997577;28;45330;-59
2022/09/09 15:02:38;;;;;;;;;2.50;2.50;;;;;;;;4999720;28;45864;-59
2022/09/09 15:05:04;;;;;;;;;2.75;1.00;;;;;;;;4995939;28;47278;-59
2022/09/09 15:07:31;;;;;;;;;2.00;2.00;;;;;;;;4995172;28;46857;-59
2022/09/09 15:09:57;;;;;;;;;1.50;1.50;;;;;;;;4999602;28;45721;-59
2022/09/09 15:12:22;;;;;;;;;3.25;2.25;;;;;;;;4997499;28;45316;-59
2022/09/09 15:14:48;;;;;;;;;1.00;1.00;;;;;;;;4994207;28;46352;-59
2022/09/09 15:17:13;;;;;;;;;1.00;1.00;;;;;;;;4997044;28;45407;-59
2022/09/09 15:19:38;;;;;;;;;1.75;1.00;;;;;;;;4988320;28;45771;-59
2022/09/09 15:22:05;;;;;;;;;4.50;2.00;;;;;;;;4996232;28;45390;-59
2022/09/09 15:24:31;;;;;;;;;1.50;1.00;;;;;;;;4994594;28;46000;-60
2022/09/09 15:26:57;;;;;;;;;3.00;1.25;;;;;;;;4995486;28;45632;-60
2022/09/09 15:29:22;;;;;;;;;1.75;1.75;;;;;;;;4996001;28;45548;-60
2022/09/09 15:31:47;;;;;;;;;1.25;1.25;;;;;;;;4997081;28;45241;-60
2022/09/09 15:34:13;;;;;;;;;2.25;1.75;;;;;;;;4995500;28;46779;-60
2022/09/09 15:36:48;;;;;;;;;3.00;1.75;;;;;;;;4992435;28;45510;-60
2022/09/09 15:39:17;;;;;;;;;2.00;2.00;;;;;;;;4991758;28;45529;-60
2022/09/09 15:41:43;;;;;;;;;1.00;1.00;;;;;;;;4996151;28;45411;-59
2022/09/09 15:44:12;;;;;;;;;3.25;2.00;;;;;;;;4994098;28;46364;-60
2022/09/09 15:46:39;;;;;;;;;1.00;1.00;;;;;;;;4997321;28;45334;-60
2022/09/09 15:49:04;;;;;;;;;3.25;3.25;;;;;;;;4992582;28;45523;-60
2022/09/09 15:51:30;;;;;;;;;1.80;1.80;;;;;;;;4998203;28;45568;-60
2022/09/09 15:53:56;;;;;;;;;1.25;1.25;;;;;;;;4998525;28;46700;-60
2022/09/09 15:56:21;;;;;;;;;2.50;2.50;;;;;;;;4987270;28;46071;-60
2022/09/09 15:58:46;;;;;;;;;1.00;1.00;;;;;;;;4992451;28;45273;-59
2022/09/09 16:01:12;;;;;;;;;5.00;3.00;;;;;;;;4995370;28;45634;-59
2022/09/09 16:03:39;;;;;;;;;5.50;3.00;;;;;;;;4993001;28;46284;-58
2022/09/09 16:06:05;;;;;;;;;2.75;2.00;;;;;;;;4991265;28;45646;-58
2022/09/09 16:08:31;;;;;;;;;2.25;2.00;;;;;;;;4998458;28;45244;-58
2022/09/09 16:11:03;;;;;;;;;2.00;2.00;;;;;;;;4993920;28;45614;-59
2022/09/09 16:13:28;;;;;;;;;2.75;2.00;;;;;;;;4991465;28;46323;-58
2022/09/09 16:15:54;;;;;;;;;3.00;3.00;;;;;;;;4993297;28;45632;-57
2022/09/09 16:18:20;;;;;;;;;2.75;2.00;;;;;;;;4997314;28;45454;-58
2022/09/09 16:20:53;;;;;;;;;2.75;2.75;;;;;;;;4991364;28;45550;-58
2022/09/09 16:23:19;;;;;;;;;2.25;2.25;;;;;;;;4991440;28;47805;-59
2022/09/09 16:25:52;;;;;;;;;3.00;1.00;;;;;;;;4991250;28;45547;-57
2022/09/09 16:28:17;;;;;;;;;3.25;2.00;;;;;;;;4979573;28;45523;-58
2022/09/09 16:30:42;;;;;;;;;1.00;1.00;;;;;;;;4995171;28;45459;-58
2022/09/09 16:33:07;;;;;;;;;1.00;1.00;;;;;;;;4987332;28;46185;-58
2022/09/09 16:35:35;;;;;;;;;1.00;1.00;;;;;;;;4993911;28;45435;-58
2022/09/09 16:38:01;;;;;;;;;2.00;2.00;;;;;;;;4992698;28;45683;-57
2022/09/09 16:40:27;;;;;;;;;3.00;2.00;;;;;;;;4985234;28;45662;-59
2022/09/09 16:42:52;;;;;;;;;4.67;3.00;;;;;;;;4994473;28;47896;-59
2022/09/09 16:45:17;;;;;;;;;2.33;2.33;;;;;;;;4991673;28;45396;-59
2022/09/09 16:47:44;;;;;;;;;5.33;4.00;;;;;;;;4981657;28;45726;-59
2022/09/09 16:50:09;;;;;;;;;3.33;2.00;;;;;;;;4981934;28;45511;-59
2022/09/09 16:52:34;;;;;;;;;1.50;1.50;;;;;;;;4991800;28;46189;-59
2022/09/09 16:54:59;;;;;;;;;2.25;2.25;;;;;;;;4990553;28;45567;-60
2022/09/09 16:57:24;;;;;;;;;4.00;4.00;;;;;;;;4980276;28;45877;-59
2022/09/09 16:59:53;;;;;;;;;2.00;2.00;;;;;;;;4992316;28;45828;-59
2022/09/09 17:02:19;;;;;;;;;2.50;1.75;;;;;;;;4987862;28;46579;-59
2022/09/09 17:04:44;;;;;;;;;1.25;1.00;;;;;;;;4981313;28;45766;-60
2022/09/09 17:07:10;;;;;;;;;3.75;2.00;;;;;;;;4986448;28;45455;-60
2022/09/09 17:09:35;;;;;;;;;1.75;1.75;;;;;;;;4987705;28;45836;-59
2022/09/09 17:12:00;;;;;;;;;4.33;3.00;;;;;;;;4985030;28;45660;-60
2022/09/09 17:14:26;;;;;;;;;2.75;2.00;;;;;;;;4977385;28;45731;-59
2022/09/09 17:16:51;;;;;;;;;2.00;2.00;;;;;;;;4995243;28;45548;-59
2022/09/09 17:19:16;;;;;;;;;5.33;2.33;;;;;;;;4997815;28;45584;-58
2022/09/09 17:21:41;;;;;;;;;4.00;2.75;;;;;;;;4985413;28;46026;-58
2022/09/09 17:24:07;;;;;;;;;2.50;2.25;;;;;;;;4991276;28;45611;-60
2022/09/09 17:26:37;;;;;;;;;5.25;3.00;;;;;;;;4992427;28;45260;-60
2022/09/09 17:29:02;;;;;;;;;1.50;1.50;;;;;;;;4992032;28;46292;-58
2022/09/09 17:31:29;;;;;;;;;3.25;2.00;;;;;;;;4998295;28;45546;-58
2022/09/09 17:33:55;;;;;;;;;2.00;2.00;;;;;;;;4991417;28;45386;-59
2022/09/09 17:36:22;;;;;;;;;3.00;1.25;;;;;;;;4993204;28;45929;-57
2022/09/09 17:38:48;;;;;;;;;2.50;2.50;;;;;;;;4986810;28;45530;-57
2022/09/09 17:41:17;;;;;;;;;4.00;3.00;;;;;;;;4992539;28;46047;-57
2022/09/09 17:43:43;;;;;;;;;2.00;2.00;;;;;;;;4986251;28;45722;-56
2022/09/09 17:46:10;;;;;;;;;1.00;1.00;;;;;;;;4989257;28;45486;-61
2022/09/09 17:48:36;;;;;;;;;3.00;1.50;;;;;;;;4999763;28;45321;-60
2022/09/09 17:51:03;;;;;;;;;1.00;1.00;;;;;;;;4999207;28;46287;-59
2022/09/09 17:53:28;;;;;;;;;3.00;1.50;;;;;;;;4987891;28;45499;-58
2022/09/09 17:55:54;;;;;;;;;2.00;2.00;;;;;;;;5004491;28;45470;-58
2022/09/09 17:58:21;;;;;;;;;1.75;1.00;;;;;;;;4993956;28;45416;-59
2022/09/09 18:00:46;;;;;;;;;2.00;2.00;;;;;;;;4998301;28;46750;-59
2022/09/09 18:03:11;;;;;;;;;2.75;2.00;;;;;;;;4994929;28;45432;-59
2022/09/09 18:05:37;;;;;;;;;7.50;2.50;;;;;;;;4998977;28;45357;-59
2022/09/09 18:08:03;;;;;;;;;2.00;2.00;;;;;;;;5001797;28;45574;-60
2022/09/09 18:10:28;;;;;;;;;3.00;3.00;;;;;;;;5001254;28;46225;-60
2022/09/09 18:12:53;;;;;;;;;1.50;1.50;;;;;;;;4991582;28;45754;-60
2022/09/09 18:15:18;;;;;;;;;2.25;2.25;;;;;;;;4982903;28;45466;-60
2022/09/09 18:17:44;;;;;;;;;3.75;2.00;;;;;;;;5009423;28;45871;-60
2022/09/09 18:20:10;;;;;;;;;2.50;2.50;;;;;;;;4992778;28;46957;-61
2022/09/09 18:22:35;;;;;;;;;3.50;3.00;;;;;;;;4993815;28;46348;-59
2022/09/09 18:25:00;;;;;;;;;2.00;2.00;;;;;;;;4990922;28;45676;-61
2022/09/09 18:27:26;;;;;;;;;3.00;3.00;;;;;;;;5005096;28;45455;-58
2022/09/09 18:29:51;;;;;;;;;3.00;2.50;;;;;;;;4993785;28;47139;-60
2022/09/09 18:32:18;;;;;;;;;7.00;3.00;;;;;;;;4983172;28;45555;-61
2022/09/09 18:34:44;;;;;;;;;3.00;3.00;;;;;;;;4995212;28;45410;-59
2022/09/09 18:37:09;;;;;;;;;3.50;3.00;;;;;;;;4984305;28;45545;-60
2022/09/09 18:39:34;;;;;;;;;2.50;2.50;;;;;;;;4990014;28;45817;-59
2022/09/09 18:42:01;;;;;;;;;4.00;2.00;;;;;;;;4992135;28;45510;-59
2022/09/09 18:44:29;;;;;;;;;4.00;2.00;;;;;;;;4996669;28;45550;-59
2022/09/09 18:46:54;;;;;;;;;2.75;1.75;;;;;;;;4986005;28;45803;-58
2022/09/09 18:49:20;;;;;;;;;3.00;3.00;;;;;;;;4986365;28;46165;-59
2022/09/09 18:51:46;;;;;;;;;3.75;2.25;;;;;;;;4992328;28;45400;-59
2022/09/09 18:54:14;;;;;;;;;2.50;2.00;;;;;;;;4990235;28;45332;-59
2022/09/09 18:56:40;;;;;;;;;2.00;2.00;;;;;;;;4990086;28;45378;-59
2022/09/09 18:59:06;;;;;;;;;2.75;2.00;;;;;;;;4993451;28;45487;-59
2022/09/09 19:01:34;;;;;;;;;2.00;2.00;;;;;;;;4990922;28;45451;-59
2022/09/09 19:04:00;;;;;;;;;5.00;2.67;;;;;;;;4992521;28;46232;-64
2022/09/09 19:06:26;;;;;;;;;2.50;2.50;;;;;;;;4985669;28;45630;-64
2022/09/09 19:08:52;;;;;;;;;5.00;3.67;;;;;;;;5000154;28;46335;-64
2022/09/09 19:11:18;;;;;;;;;2.00;2.00;;;;;;;;4997104;28;45381;-64
2022/09/09 19:13:54;;;;;;;;;4.25;2.00;;;;;;;;4996550;28;45499;-64
2022/09/09 19:16:20;;;;;;;;;3.00;3.00;;;;;;;;4995232;28;45560;-64
2022/09/09 19:18:47;;;;;;;;;5.00;2.33;;;;;;;;4991700;28;45615;-64